Time;durP1;ratioP1;P1;durP2;ratioP2;P2;SDS_P1;SDS_P2;PMS_P1;PMS_P2;Temp;Humidity;BMP_temperature;BMP_pressure;BME280_temperature;BME280_humidity;BME280_pressure;Samples;Min_cycle;Max_cycle;Signal;HPM_P1;HPM_P2
2022/05/02 00:01:20;;;;;;;17.90;12.20;;;;;;;7.39;100.00;98931.91;5024601;28;20033;-61
2022/05/02 00:03:46;;;;;;;19.20;12.45;;;;;;;7.35;100.00;98930.59;5028691;28;20041;-61
2022/05/02 00:06:11;;;;;;;19.05;12.07;;;;;;;7.31;100.00;98929.25;5019754;28;20049;-61
2022/05/02 00:08:37;;;;;;;17.48;12.27;;;;;;;7.27;100.00;98931.47;5023160;28;20506;-62
2022/05/02 00:11:02;;;;;;;19.58;11.63;;;;;;;6.96;100.00;98907.31;5014819;28;20399;-62
2022/05/02 00:13:27;;;;;;;16.63;10.82;;;;;;;6.74;100.00;98904.41;5027733;28;20053;-62
2022/05/02 00:15:53;;;;;;;17.55;11.70;;;;;;;6.75;100.00;98926.75;5025208;28;20030;-62
2022/05/02 00:18:19;;;;;;;15.52;11.20;;;;;;;6.70;100.00;98924.59;5030212;28;20034;-62
2022/05/02 00:20:44;;;;;;;18.65;12.63;;;;;;;6.71;100.00;98931.66;5017055;28;20449;-62
2022/05/02 00:23:11;;;;;;;22.20;13.35;;;;;;;6.78;100.00;98929.91;5030805;28;20100;-61
2022/05/02 00:25:37;;;;;;;22.00;14.85;;;;;;;6.84;100.00;98920.34;5017288;28;20018;-61
2022/05/02 00:28:03;;;;;;;27.95;14.52;;;;;;;6.90;100.00;98919.63;5024337;28;20036;-62
2022/05/02 00:30:30;;;;;;;17.70;13.13;;;;;;;6.85;100.00;98915.78;5020993;28;20429;-61
2022/05/02 00:32:57;;;;;;;23.55;13.73;;;;;;;6.90;100.00;98919.63;5041060;28;20021;-61
2022/05/02 00:35:22;;;;;;;20.25;13.85;;;;;;;6.88;100.00;98920.81;5030394;28;20028;-62
2022/05/02 00:37:47;;;;;;;19.80;13.55;;;;;;;6.87;100.00;98916.44;5019730;28;20034;-62
2022/05/02 00:40:15;;;;;;;22.90;13.27;;;;;;;6.80;100.00;98919.81;5026862;28;20135;-61
2022/05/02 00:42:43;;;;;;;20.00;13.13;;;;;;;6.84;100.00;98914.94;5027667;28;20029;-61
2022/05/02 00:45:09;;;;;;;23.38;14.02;;;;;;;6.78;100.00;98916.47;5017367;28;20498;-61
2022/05/02 00:47:35;;;;;;;25.02;14.23;;;;;;;6.82;100.00;98913.44;5021073;28;20148;-62
2022/05/02 00:50:03;;;;;;;25.17;14.32;;;;;;;6.80;100.00;98919.81;5019550;28;20536;-61
2022/05/02 00:52:28;;;;;;;20.05;14.27;;;;;;;6.76;100.00;98907.75;5026691;28;20032;-61
2022/05/02 00:54:54;;;;;;;21.20;13.57;;;;;;;6.70;100.00;98892.31;5022433;28;20057;-62
2022/05/02 00:57:19;;;;;;;26.60;13.98;;;;;;;6.88;100.00;98907.34;5020748;28;20022;-61
2022/05/02 00:59:45;;;;;;;21.08;14.45;;;;;;;6.90;100.00;98908.03;5031306;28;20041;-62
2022/05/02 01:02:13;;;;;;;21.08;13.32;;;;;;;6.89;100.00;98903.63;5016397;28;20054;-62
2022/05/02 01:04:39;;;;;;;20.63;13.75;;;;;;;6.79;100.00;98890.44;5028961;28;20018;-61
2022/05/02 01:07:18;;;;;;;22.08;14.43;;;;;;;6.91;100.00;98898.94;5036026;28;20030;-60
2022/05/02 01:09:47;;;;;;;17.35;11.73;;;;;;;6.94;100.00;98894.06;5020494;28;20483;-60
2022/05/02 01:12:17;;;;;;;18.55;11.60;;;;;;;6.95;100.00;98906.47;5024887;28;20033;-60
2022/05/02 01:14:44;;;;;;;17.00;12.02;;;;;;;6.91;100.00;98899.75;5026892;28;20029;-60
2022/05/02 01:17:10;;;;;;;16.17;11.68;;;;;;;6.77;100.00;98895.97;5024964;28;20033;-60
2022/05/02 01:19:36;;;;;;;20.88;12.50;;;;;;;6.69;100.00;98903.28;5039648;28;20033;-60
2022/05/02 01:22:05;;;;;;;20.92;12.93;;;;;;;6.77;100.00;98903.22;5013861;28;20037;-62
2022/05/02 01:24:34;;;;;;;;;;;;;;;6.89;100.00;98888.38;5024074;28;20022;-60
2022/05/02 01:26:59;;;;;;;20.63;13.07;;;;;;;6.97;100.00;98892.88;5026678;28;19917;-61
2022/05/02 01:29:24;;;;;;;22.27;13.38;;;;;;;6.95;100.00;98884.97;5045491;28;20022;-60
2022/05/02 01:31:53;;;;;;;20.83;14.45;;;;;;;6.96;100.00;98869.66;5021896;28;20033;-60
2022/05/02 01:34:18;;;;;;;21.00;13.60;;;;;;;7.07;100.00;98887.22;5021134;28;20475;-60
2022/05/02 01:36:44;;;;;;;19.40;12.55;;;;;;;7.09;100.00;98875.28;5026836;28;20036;-60
2022/05/02 01:39:09;;;;;;;18.50;12.48;;;;;;;7.06;100.00;98875.63;5025942;28;20026;-62
2022/05/02 01:41:35;;;;;;;20.20;12.38;;;;;;;7.07;100.00;98876.47;5025893;28;20520;-60
2022/05/02 01:44:00;;;;;;;18.58;13.23;;;;;;;7.15;100.00;98871.03;5020541;28;20022;-60
2022/05/02 01:46:25;;;;;;;20.63;13.05;;;;;;;7.23;100.00;98881.72;5028072;28;20029;-60
2022/05/02 01:48:50;;;;;;;18.30;12.18;;;;;;;7.20;100.00;98876.69;5020024;28;20097;-60
2022/05/02 01:51:16;;;;;;;20.17;12.23;;;;;;;7.23;100.00;98879.88;5017612;28;20100;-60
2022/05/02 01:53:42;;;;;;;19.33;11.85;;;;;;;7.27;100.00;98877.66;5027169;28;20486;-60
2022/05/02 01:56:07;;;;;;;17.08;12.07;;;;;;;7.30;100.00;98876.47;5022178;28;20036;-60
2022/05/02 01:58:32;;;;;;;16.48;11.65;;;;;;;7.36;100.00;98870.34;5029072;28;20065;-60
2022/05/02 02:00:58;;;;;;;16.73;12.00;;;;;;;7.33;100.00;98870.72;5026184;28;20029;-60
2022/05/02 02:03:23;;;;;;;18.83;12.80;;;;;;;7.36;100.00;98865.81;5030875;28;20024;-60
2022/05/02 02:05:48;;;;;;;21.00;13.23;;;;;;;7.37;100.00;98869.34;5023342;28;20029;-61
2022/05/02 02:08:23;;;;;;;19.75;12.15;;;;;;;7.36;100.00;98876.59;5027685;28;20052;-60
2022/05/02 02:10:50;;;;;;;18.38;12.85;;;;;;;7.38;100.00;98863.78;5026820;28;20128;-60
2022/05/02 02:13:16;;;;;;;18.35;12.27;;;;;;;7.46;100.00;98870.94;5032251;28;20579;-60
2022/05/02 02:15:42;;;;;;;17.98;12.20;;;;;;;7.27;100.00;98836.47;5031662;28;20056;-60
2022/05/02 02:18:08;;;;;;;20.58;11.82;;;;;;;7.43;100.00;98865.94;5026782;28;20585;-60
2022/05/02 02:20:34;;;;;;;18.92;11.75;;;;;;;7.42;100.00;98859.72;5029457;28;20503;-61
2022/05/02 02:23:00;;;;;;;17.15;11.48;;;;;;;7.41;100.00;98862.56;5024006;28;20033;-60
2022/05/02 02:25:25;;;;;;;17.77;11.10;;;;;;;7.44;100.00;98865.75;5027031;28;20028;-60
2022/05/02 02:27:50;;;;;;;15.85;11.52;;;;;;;7.51;100.00;98863.16;5022710;28;20037;-60
2022/05/02 02:30:17;;;;;;;20.60;12.45;;;;;;;7.56;100.00;98859.91;5011728;28;20068;-60
2022/05/02 02:32:42;;;;;;;16.25;10.93;;;;;;;7.54;100.00;98857.41;5024471;28;20053;-60
2022/05/02 02:35:08;;;;;;;15.45;11.35;;;;;;;7.54;100.00;98852.03;5018834;28;20064;-60
2022/05/02 02:37:34;;;;;;;17.55;11.63;;;;;;;7.59;100.00;98846.91;5021283;28;20030;-60
2022/05/02 02:39:59;;;;;;;18.20;11.77;;;;;;;7.53;100.00;98844.97;5027997;28;20120;-60
2022/05/02 02:42:24;;;;;;;17.42;11.35;;;;;;;7.42;100.00;98831.97;5018927;28;20107;-60
2022/05/02 02:44:51;;;;;;;17.70;12.20;;;;;;;7.45;100.00;98842.38;5018649;28;20454;-60
2022/05/02 02:47:16;;;;;;;18.08;12.73;;;;;;;7.51;100.00;98847.00;5025304;28;20440;-61
2022/05/02 02:49:41;;;;;;;17.42;12.10;;;;;;;7.58;100.00;98847.13;5021268;28;20033;-61
2022/05/02 02:52:08;;;;;;;21.92;13.23;;;;;;;7.58;100.00;98837.19;5018187;28;20092;-61
2022/05/02 02:54:33;;;;;;;19.13;12.52;;;;;;;7.51;100.00;98825.47;5017454;28;20465;-61
2022/05/02 02:56:59;;;;;;;18.60;12.95;;;;;;;7.67;100.00;98844.16;5021108;28;20121;-61
2022/05/02 02:59:24;;;;;;;20.17;13.55;;;;;;;7.72;100.00;98843.59;5019206;28;20028;-60
2022/05/02 03:01:49;;;;;;;18.77;13.40;;;;;;;7.71;100.00;98819.56;5019671;28;20442;-61
2022/05/02 03:06:59;;;;;;;19.92;13.60;;;;;;;7.69;100.00;98825.13;5025987;28;20106;-60
2022/05/02 03:09:24;;;;;;;19.38;13.02;;;;;;;7.76;100.00;98825.25;5044047;28;20049;-61
2022/05/02 03:11:49;;;;;;;20.80;14.70;;;;;;;7.84;100.00;98828.66;5015762;28;20022;-61
2022/05/02 03:14:15;;;;;;;23.15;15.82;;;;;;;7.87;100.00;98824.78;5023405;28;20017;-61
2022/05/02 03:16:40;;;;;;;23.38;15.65;;;;;;;7.89;100.00;98817.34;5043956;28;20040;-61
2022/05/02 03:19:05;;;;;;;21.88;13.95;;;;;;;7.87;100.00;98808.59;5018978;28;20104;-61
2022/05/02 03:21:30;;;;;;;23.20;16.08;;;;;;;7.90;100.00;98821.69;5020023;28;20028;-60
2022/05/02 03:23:56;;;;;;;22.25;14.57;;;;;;;7.86;100.00;98815.84;5019969;28;20029;-60
2022/05/02 03:26:21;;;;;;;19.30;13.95;;;;;;;7.82;100.00;98802.94;5026753;28;20036;-60
2022/05/02 03:28:46;;;;;;;19.38;14.18;;;;;;;7.68;100.00;98785.75;5016864;28;20037;-60
2022/05/02 03:31:12;;;;;;;23.92;14.63;;;;;;;7.80;100.00;98818.44;5023021;28;20029;-62
2022/05/02 03:33:37;;;;;;;23.30;13.82;;;;;;;7.75;100.00;98802.00;5016336;28;20380;-65
2022/05/02 03:36:03;;;;;;;20.80;14.65;;;;;;;7.71;100.00;98801.53;5039365;28;20029;-65
2022/05/02 03:38:28;;;;;;;19.88;14.15;;;;;;;8.00;100.00;98808.78;5023114;28;20386;-64
2022/05/02 03:40:53;;;;;;;21.35;14.25;;;;;;;7.92;100.00;98808.88;5025536;28;20025;-65
2022/05/02 03:43:19;;;;;;;18.15;12.27;;;;;;;7.90;100.00;98808.22;5018824;28;20480;-63
2022/05/02 03:45:44;;;;;;;17.67;11.93;;;;;;;7.61;100.00;98804.50;5023116;28;20021;-64
2022/05/02 03:48:09;;;;;;;18.88;11.88;;;;;;;7.51;100.00;98806.63;5030232;28;20078;-65
2022/05/02 03:50:34;;;;;;;14.95;10.98;;;;;;;7.50;100.00;98814.91;5039797;28;20372;-64
2022/05/02 03:53:00;;;;;;;16.08;10.93;;;;;;;7.30;100.00;98776.91;5027105;28;20499;-64
2022/05/02 03:55:25;;;;;;;16.85;11.98;;;;;;;7.39;100.00;98805.41;5019556;28;20026;-65
2022/05/02 03:57:50;;;;;;;15.13;11.38;;;;;;;7.27;100.00;98801.47;5026676;28;20537;-65
2022/05/02 04:00:16;;;;;;;15.70;11.30;;;;;;;7.10;100.00;98803.47;5030795;28;20025;-64
2022/05/02 04:02:41;;;;;;;16.48;10.65;;;;;;;6.93;100.00;98798.22;5033835;28;20037;-67
2022/05/02 04:05:07;;;;;;;20.75;11.70;;;;;;;6.91;100.00;98802.09;5026273;28;20040;-69
2022/05/02 04:07:33;;;;;;;21.10;13.30;;;;;;;6.87;100.00;98800.81;5028764;28;20029;-63
2022/05/02 04:09:58;;;;;;;20.48;12.77;;;;;;;6.84;100.00;98801.16;5025392;28;20052;-68
2022/05/02 04:12:24;;;;;;;20.58;13.20;;;;;;;6.82;100.00;98805.88;5023642;28;20022;-69
2022/05/02 04:14:49;;;;;;;25.63;13.20;;;;;;;6.72;100.00;98788.13;5031613;28;20087;-70
2022/05/02 04:17:14;;;;;;;20.25;12.85;;;;;;;6.73;100.00;98791.66;5029091;28;20037;-70
2022/05/02 04:19:40;;;;;;;19.48;13.30;;;;;;;6.91;100.00;98797.56;5043186;28;20079;-69
2022/05/02 04:22:05;;;;;;;21.33;14.07;;;;;;;7.00;100.00;98801.88;5031560;28;20026;-66
2022/05/02 04:24:31;;;;;;;21.10;14.48;;;;;;;7.17;100.00;98802.56;5031407;28;20056;-66
2022/05/02 04:26:57;;;;;;;25.95;15.40;;;;;;;7.22;100.00;98808.22;5030136;28;20021;-67
2022/05/02 04:29:24;;;;;;;25.80;15.77;;;;;;;7.16;100.00;98798.22;5044178;28;20021;-66
2022/05/02 04:31:49;;;;;;;23.08;15.02;;;;;;;7.20;100.00;98812.13;5025534;28;20029;-67
2022/05/02 04:34:14;;;;;;;24.85;16.10;;;;;;;7.36;100.00;98801.22;5026114;28;20032;-67
2022/05/02 04:36:40;;;;;;;19.35;13.60;;;;;;;7.34;100.00;98808.66;5032032;28;20439;-66
2022/05/02 04:39:05;;;;;;;21.80;13.90;;;;;;;7.19;100.00;98768.25;5018419;28;20041;-67
2022/05/02 04:41:31;;;;;;;20.65;13.55;;;;;;;7.52;100.00;98811.00;5016386;28;20061;-66
2022/05/02 04:43:57;;;;;;;19.75;12.38;;;;;;;7.54;100.00;98813.50;5027533;28;20026;-72
2022/05/02 04:46:22;;;;;;;18.23;13.35;;;;;;;7.59;100.00;98814.63;5021630;28;20762;-64
2022/05/02 04:48:48;;;;;;;22.90;14.30;;;;;;;7.64;100.00;98824.84;5024372;28;20029;-65
2022/05/02 04:51:13;;;;;;;19.60;13.57;;;;;;;7.84;100.00;98817.91;5031477;28;20391;-64
2022/05/02 04:53:38;;;;;;;18.05;13.38;;;;;;;7.97;100.00;98814.56;5022305;28;20037;-64
2022/05/02 04:56:04;;;;;;;22.60;13.35;;;;;;;8.13;100.00;98813.53;5030629;28;20029;-65
2022/05/02 04:58:29;;;;;;;20.90;13.05;;;;;;;8.17;100.00;98814.78;5021751;28;20029;-65
2022/05/02 05:00:55;;;;;;;17.73;12.25;;;;;;;8.27;100.00;98815.34;5022012;28;20029;-63
2022/05/02 05:03:23;;;;;;;19.67;12.68;;;;;;;8.23;100.00;98813.25;5030027;28;20017;-65
2022/05/02 05:05:49;;;;;;;19.45;12.48;;;;;;;8.15;100.00;98807.94;5034814;28;20029;-65
2022/05/02 05:08:15;;;;;;;18.50;13.43;;;;;;;8.25;100.00;98811.16;5032222;28;20036;-66
2022/05/02 05:10:58;;;;;;;34.65;12.50;;;;;;;8.42;100.00;98807.28;5030225;28;20030;-64
2022/05/02 05:13:36;;;;;;;17.80;12.25;;;;;;;8.56;100.00;98809.09;5017578;28;20104;-66
2022/05/02 05:16:31;;;;;;;18.90;13.13;;;;;;;8.84;100.00;98813.75;5033534;28;20057;-65
2022/05/02 05:19:20;;;;;;;18.83;11.82;;;;;;;9.20;100.00;98807.47;5026121;28;20040;-66
2022/05/02 05:21:58;;;;;;;;;;;;;;;9.48;100.00;98812.84;5030142;28;20033;-65
2022/05/02 05:24:38;;;;;;;16.30;11.35;;;;;;;9.76;100.00;98812.84;5030673;28;20330;-66
2022/05/02 05:27:10;;;;;;;17.27;12.45;;;;;;;9.78;100.00;98816.19;5017548;28;20491;-65
2022/05/02 05:30:07;;;;;;;16.10;11.30;;;;;;;9.88;100.00;98813.97;5031361;28;20044;-65
2022/05/02 05:32:51;;;;;;;17.63;12.40;;;;;;;10.10;100.00;98806.59;5026180;28;20025;-68
2022/05/02 05:35:23;;;;;;;14.68;10.88;;;;;;;10.12;97.88;98811.81;5026232;28;20026;-67
2022/05/02 05:38:00;;;;;;;15.40;10.45;;;;;;;10.24;98.68;98802.13;5028576;28;20469;-67
2022/05/02 05:40:50;;;;;;;19.92;11.45;;;;;;;10.65;97.19;98787.72;5032866;28;20018;-67
2022/05/02 05:43:58;;;;;;;15.55;10.95;;;;;;;10.90;94.13;98806.09;5021834;28;20461;-65
2022/05/02 05:46:42;;;;;;;14.93;10.73;;;;;;;10.83;94.49;98799.84;5024112;28;20025;-67
2022/05/02 05:49:09;;;;;;;15.07;10.70;;;;;;;11.14;92.84;98808.22;5040931;28;20029;-67
2022/05/02 05:51:54;;;;;;;16.90;11.75;;;;;;;11.27;90.78;98806.56;5021357;28;20029;-67
2022/05/02 05:54:28;;;;;;;16.13;10.93;;;;;;;11.62;90.12;98805.28;5021215;28;20018;-68
2022/05/02 05:57:17;;;;;;;13.93;10.20;;;;;;;11.77;87.77;98809.66;5015408;28;20541;-68
2022/05/02 06:00:01;;;;;;;;;;;;;;;12.09;87.50;98799.81;5019310;28;20030;-68
2022/05/02 06:02:40;;;;;;;15.93;10.65;;;;;;;12.54;84.32;98799.84;5017457;28;19914;-69
2022/05/02 06:05:07;;;;;;;;;;;;;;;13.04;79.63;98796.41;5032306;28;20052;-62
2022/05/02 06:07:33;;;;;;;12.88;9.65;;;;;;;12.84;79.62;98797.38;5027317;28;19913;-69
2022/05/02 06:10:02;;;;;;;13.02;9.93;;;;;;;13.23;78.51;98773.72;5017757;28;20067;-69
2022/05/02 06:12:30;;;;;;;13.05;9.93;;;;;;;13.86;76.03;98797.22;5020985;28;20018;-68
2022/05/02 06:20:29;;;;;;;15.48;9.75;;;;;;;16.99;62.64;98789.44;5030216;28;20035;-62
2022/05/02 06:22:57;;;;;;;13.00;9.93;;;;;;;17.61;59.41;98789.41;5026575;28;20061;-62
2022/05/02 06:25:24;;;;;;;15.98;10.20;;;;;;;18.96;54.45;98780.78;5027016;28;20072;-62
2022/05/02 06:27:50;;;;;;;14.35;10.63;;;;;;;19.44;52.43;98761.75;5022927;28;20021;-62
2022/05/02 06:30:15;;;;;;;12.90;9.27;;;;;;;20.36;50.34;98784.34;5016804;28;20032;-62
2022/05/02 06:32:43;;;;;;;13.10;10.27;;;;;;;20.39;48.94;98785.72;5028438;28;20045;-62
2022/05/02 06:35:09;;;;;;;12.32;10.13;;;;;;;21.26;47.44;98780.50;5024206;28;20398;-62
2022/05/02 06:37:49;;;;;;;12.65;9.85;;;;;;;21.87;45.79;98783.25;5024849;28;20026;-69
2022/05/02 06:40:19;;;;;;;12.20;9.18;;;;;;;22.79;43.75;98782.97;5025112;28;20427;-70
2022/05/02 06:42:59;;;;;;;11.60;8.57;;;;;;;23.78;40.92;98777.31;5026635;28;20430;-67
2022/05/02 06:45:48;;;;;;;12.45;9.07;;;;;;;23.51;41.19;98769.53;5018825;28;20076;-67
2022/05/02 06:48:24;;;;;;;12.70;8.70;;;;;;;24.25;39.22;98781.25;5023209;28;20021;-62
2022/05/02 06:50:55;;;;;;;12.05;8.38;;;;;;;23.48;40.64;98783.09;5020598;28;20037;-64
2022/05/02 06:53:29;;;;;;;12.68;9.10;;;;;;;23.82;40.53;98783.94;5026991;28;20025;-63
2022/05/02 06:56:01;;;;;;;13.57;8.50;;;;;;;23.81;40.95;98781.44;5022578;28;20034;-67
2022/05/02 06:58:57;;;;;;;10.07;8.95;;;;;;;23.68;41.93;98780.16;5022726;28;20175;-67
2022/05/02 07:01:32;;;;;;;9.30;8.05;;;;;;;24.56;39.85;98780.13;5028242;28;20025;-69
2022/05/02 07:04:22;;;;;;;13.45;8.88;;;;;;;24.50;40.54;98776.59;5028626;28;20021;-65
2022/05/02 07:07:15;;;;;;;11.77;7.80;;;;;;;26.17;37.38;98779.84;5028399;28;20041;-67
2022/05/02 07:09:52;;;;;;;10.93;7.90;;;;;;;26.35;35.91;98772.53;5024172;28;20103;-69
2022/05/02 07:12:25;;;;;;;10.32;8.60;;;;;;;26.50;35.96;98776.94;5042592;28;20470;-69
2022/05/02 07:15:21;;;;;;;12.63;8.85;;;;;;;27.23;35.25;98780.69;5031248;28;20030;-69
2022/05/02 07:18:04;;;;;;;12.60;8.40;;;;;;;26.70;35.77;98769.34;5027139;28;20032;-72
2022/05/02 07:20:52;;;;;;;11.90;8.27;;;;;;;26.88;34.91;98783.13;5024337;28;20037;-72
2022/05/02 07:23:40;;;;;;;10.20;7.75;;;;;;;27.14;34.29;98767.81;5024160;28;20025;-69
2022/05/02 07:26:18;;;;;;;11.10;7.70;;;;;;;27.05;33.78;98771.34;5020428;28;20116;-66
2022/05/02 07:28:45;;;;;;;14.23;8.50;;;;;;;25.15;36.17;98726.13;5017125;28;20075;-72
2022/05/02 07:31:21;;;;;;;12.95;8.93;;;;;;;26.43;35.16;98776.53;5034630;28;20029;-69
2022/05/02 07:33:50;;;;;;;8.45;7.35;;;;;;;26.55;34.73;98767.75;5029994;28;20665;-69
2022/05/02 07:36:18;;;;;;;10.50;8.07;;;;;;;26.94;34.62;98774.66;5022670;28;20049;-69
2022/05/02 07:38:46;;;;;;;10.18;8.02;;;;;;;28.29;32.49;98769.09;5031328;28;20033;-69
2022/05/02 07:41:25;;;;;;;10.90;8.75;;;;;;;28.97;31.46;98773.22;5021621;28;20044;-68
2022/05/02 07:44:02;;;;;;;13.52;8.13;;;;;;;29.03;30.62;98774.72;5028056;28;20080;-69
2022/05/02 07:46:33;;;;;;;8.68;7.13;;;;;;;29.76;30.05;98762.91;5015318;28;20097;-67
2022/05/02 07:49:01;;;;;;;11.80;7.20;;;;;;;30.25;28.52;98759.84;5024851;28;20365;-71
2022/05/02 07:51:27;;;;;;;9.43;7.57;;;;;;;30.28;28.76;98750.78;5027865;28;20128;-71
2022/05/02 07:53:53;;;;;;;8.10;7.25;;;;;;;30.18;29.93;98757.50;5030497;28;20551;-71
2022/05/02 07:56:23;;;;;;;10.02;7.78;;;;;;;29.25;30.10;98745.91;5021044;28;20049;-73
2022/05/02 07:58:51;;;;;;;10.02;7.65;;;;;;;29.93;30.25;98754.50;5030919;28;20041;-72
2022/05/02 08:01:17;;;;;;;;;;;;;;;28.80;30.78;98764.84;5021430;28;20026;-74
2022/05/02 08:03:43;;;;;;;9.57;8.13;;;;;;;28.66;30.76;98730.75;5025183;28;19913;-73
2022/05/02 08:06:27;;;;;;;10.45;7.57;;;;;;;28.88;32.15;98772.41;5031391;28;20532;-68
2022/05/02 08:09:23;;;;;;;9.50;8.00;;;;;;;29.26;31.14;98736.38;5028750;28;20462;-69
2022/05/02 08:12:07;;;;;;;9.63;8.18;;;;;;;29.41;30.31;98757.34;5029936;28;20038;-70
2022/05/02 08:14:53;;;;;;;8.95;7.25;;;;;;;30.51;29.78;98757.72;5015955;28;20044;-66
2022/05/02 08:17:47;;;;;;;9.68;7.13;;;;;;;31.06;29.05;98757.91;5018533;28;20021;-66
2022/05/02 08:20:46;;;;;;;7.90;6.20;;;;;;;30.98;29.45;98765.19;5023270;28;20018;-69
2022/05/02 08:29:35;;;;;;;12.57;7.82;;;;;;;28.44;32.86;98754.75;5030379;28;20079;-71
2022/05/02 08:32:07;;;;;;;9.18;7.80;;;;;;;29.60;31.73;98756.19;5017597;28;21022;-68
2022/05/02 08:34:39;;;;;;;9.88;7.95;;;;;;;29.55;31.68;98756.34;5017651;28;20029;-70
2022/05/02 08:37:36;;;;;;;8.23;7.07;;;;;;;30.26;29.99;98745.56;5025159;28;20027;-69
2022/05/02 08:40:04;;;;;;;9.88;7.85;;;;;;;28.97;31.25;98745.34;5038249;28;20028;-67
2022/05/02 08:43:01;;;;;;;7.93;6.50;;;;;;;30.60;29.67;98740.09;5023989;28;20040;-67
2022/05/02 08:45:35;;;;;;;11.88;7.07;;;;;;;31.55;29.41;98739.41;5030031;28;20051;-67
2022/05/02 08:48:47;;;;;;;9.35;8.10;;;;;;;30.35;29.00;98737.94;5026659;28;20095;-67
2022/05/02 08:51:34;;;;;;;10.57;8.52;;;;;;;30.80;28.71;98745.72;5030473;28;20033;-67
2022/05/02 08:54:36;;;;;;;12.35;8.95;;;;;;;30.65;28.22;98740.72;5024830;28;20025;-67
2022/05/02 08:57:32;;;;;;;10.25;8.43;;;;;;;29.71;30.45;98737.97;5021103;28;20045;-67
2022/05/02 09:00:07;;;;;;;9.27;8.02;;;;;;;26.76;35.04;98746.72;5027636;28;20025;-70
2022/05/02 09:02:51;;;;;;;10.02;7.88;;;;;;;25.73;37.46;98742.38;5019495;28;20025;-71
2022/05/02 09:05:35;;;;;;;14.90;9.10;;;;;;;23.32;40.96;98749.28;5030312;28;20186;-71
2022/05/02 09:08:25;;;;;;;9.15;8.18;;;;;;;22.65;43.22;98751.59;5017384;28;20031;-71
2022/05/02 09:10:57;;;;;;;13.63;8.95;;;;;;;21.40;45.13;98748.59;5018208;28;20167;-71
2022/05/02 09:14:04;;;;;;;12.32;10.00;;;;;;;20.70;46.44;98721.56;5029695;28;20025;-71
2022/05/02 09:16:32;;;;;;;13.23;10.02;;;;;;;21.15;46.06;98743.91;5032388;28;20021;-69
2022/05/02 09:19:32;;;;;;;12.80;8.73;;;;;;;24.37;41.07;98741.34;5032118;28;20032;-67
2022/05/02 09:22:31;;;;;;;10.48;8.30;;;;;;;26.04;35.58;98740.97;5027665;28;22947;-68
2022/05/02 09:25:10;;;;;;;;;;;;;;;24.35;38.91;98735.25;5025658;28;20040;-67
2022/05/02 09:27:55;;;;;;;12.43;7.88;;;;;;;23.82;39.06;98753.53;5024380;28;19913;-67
2022/05/02 09:30:45;;;;;;;14.07;8.35;;;;;;;24.18;39.33;98741.25;5021912;28;20025;-67
2022/05/02 09:33:29;;;;;;;12.80;8.38;;;;;;;24.36;38.87;98748.78;5024454;28;20028;-67
2022/05/02 09:36:15;;;;;;;10.77;8.18;;;;;;;25.15;37.85;98723.34;5031800;28;20052;-67
2022/05/02 09:38:48;;;;;;;9.90;8.85;;;;;;;25.55;37.40;98740.47;5033063;28;20025;-67
2022/05/02 09:41:43;;;;;;;12.95;9.60;;;;;;;24.48;38.77;98729.84;5029148;28;20033;-67
2022/05/02 09:50:34;;;;;;;9.00;7.72;;;;;;;25.34;38.16;98718.66;5015477;28;20080;-68
2022/05/02 09:53:24;;;;;;;10.80;8.00;;;;;;;24.42;40.86;98735.75;5019687;28;20021;-67
2022/05/02 09:58:47;;;;;;;10.10;7.10;;;;;;;29.18;33.35;98725.25;5030567;28;20091;-67
2022/05/02 10:01:26;;;;;;;9.02;7.57;;;;;;;30.56;30.96;98712.03;5012777;28;20407;-68
2022/05/02 10:03:52;;;;;;;10.40;6.57;;;;;;;32.25;29.05;98714.28;5012716;28;20033;-68
2022/05/02 10:06:47;;;;;;;8.57;5.90;;;;;;;33.23;27.61;98704.91;5019556;28;20107;-66
2022/05/02 10:10:01;;;;;;;7.47;5.55;;;;;;;32.67;27.80;98707.59;5006771;28;20045;-67
2022/05/02 10:12:27;;;;;;;6.53;5.13;;;;;;;31.84;28.34;98706.84;5016311;28;20554;-67
2022/05/02 10:15:21;;;;;;;10.75;6.22;;;;;;;29.70;30.70;98705.69;5025929;28;20025;-67
2022/05/02 10:17:52;;;;;;;7.30;6.20;;;;;;;27.87;33.27;98704.59;5026690;28;20372;-68
2022/05/02 10:20:19;;;;;;;9.35;6.57;;;;;;;27.03;34.09;98712.50;5023305;28;20092;-68
2022/05/02 10:23:15;;;;;;;6.90;5.75;;;;;;;26.15;36.32;98703.63;5018926;28;20118;-68
2022/05/02 10:26:06;;;;;;;6.65;5.40;;;;;;;26.17;36.44;98704.97;5021636;28;20541;-68
2022/05/02 10:29:03;;;;;;;7.43;5.47;;;;;;;25.09;38.34;98706.00;5042230;28;20108;-67
2022/05/02 10:31:34;;;;;;;9.75;6.57;;;;;;;24.85;38.40;98675.66;5030124;28;20106;-67
2022/05/02 10:34:03;;;;;;;9.07;6.35;;;;;;;26.36;36.37;98704.03;5015766;28;20022;-65
2022/05/02 10:36:35;;;;;;;6.35;5.40;;;;;;;29.06;32.78;98695.28;5020123;28;20029;-74
2022/05/02 10:39:29;;;;;;;8.93;5.95;;;;;;;29.65;29.68;98687.16;5023725;28;20108;-68
2022/05/02 10:41:58;;;;;;;8.43;5.32;;;;;;;28.61;32.49;98696.38;5015966;28;20077;-70
2022/05/02 10:44:28;;;;;;;8.13;6.43;;;;;;;26.63;33.39;98687.34;5015600;28;20159;-70
2022/05/02 10:47:03;;;;;;;8.30;6.00;;;;;;;26.32;35.12;98691.88;5022404;28;20057;-69
2022/05/02 10:49:37;;;;;;;5.78;4.85;;;;;;;27.29;32.53;98682.19;5009246;28;20048;-69
2022/05/02 10:52:29;;;;;;;7.50;5.88;;;;;;;28.76;31.05;98675.56;5015419;28;20033;-68
2022/05/02 10:55:06;;;;;;;7.28;4.78;;;;;;;27.19;32.87;98676.88;5012533;28;20578;-68
2022/05/02 10:57:38;;;;;;;5.50;4.68;;;;;;;25.43;34.74;98668.09;5023209;28;20053;-68
2022/05/02 11:00:09;;;;;;;6.55;5.55;;;;;;;25.80;33.67;98680.97;5015022;28;20072;-68
2022/05/02 11:03:08;;;;;;;6.25;4.68;;;;;;;27.18;33.56;98669.69;5025205;28;20112;-70
2022/05/02 11:05:48;;;;;;;8.85;4.60;;;;;;;26.84;34.61;98675.78;5014929;28;20029;-69
2022/05/02 11:08:34;;;;;;;8.23;5.57;;;;;;;25.50;35.42;98669.34;5015722;28;20048;-71
2022/05/02 11:11:22;;;;;;;7.18;5.30;;;;;;;24.80;36.16;98669.38;5015373;28;20037;-70
2022/05/02 11:14:06;;;;;;;10.15;6.35;;;;;;;23.45;37.96;98673.22;5041921;28;20033;-70
2022/05/02 11:16:49;;;;;;;7.03;4.82;;;;;;;25.33;36.40;98661.59;5016867;28;20029;-70
2022/05/02 11:22:31;;;;;;;9.77;4.60;;;;;;;25.77;34.02;98659.41;5020943;28;20064;-69
2022/05/02 11:25:18;;;;;;;6.60;4.90;;;;;;;24.48;34.92;98660.72;5028063;28;20345;-68
2022/05/02 11:27:51;;;;;;;5.97;4.50;;;;;;;25.99;34.02;98658.72;5025638;28;20119;-70
2022/05/02 11:30:22;;;;;;;6.93;4.68;;;;;;;28.29;30.54;98641.09;5028149;28;20113;-69
2022/05/02 11:33:32;;;;;;;6.00;3.95;;;;;;;28.09;30.82;98646.13;5032418;28;20080;-70
2022/05/02 11:36:01;;;;;;;5.38;4.18;;;;;;;26.23;32.33;98656.56;5022402;28;20644;-69
2022/05/02 11:38:29;;;;;;;5.30;4.25;;;;;;;24.03;35.64;98656.59;5024438;28;20025;-69
2022/05/02 11:41:10;;;;;;;6.32;4.05;;;;;;;23.41;37.42;98648.13;5012646;28;20025;-69
2022/05/02 11:43:38;;;;;;;7.28;3.90;;;;;;;22.93;39.48;98650.75;5029801;28;20110;-69
2022/05/02 11:46:10;;;;;;;6.13;4.25;;;;;;;22.85;38.14;98646.66;5023894;28;20018;-68
2022/05/02 11:48:54;;;;;;;8.38;4.60;;;;;;;22.54;38.41;98649.63;5025736;28;20021;-69
2022/05/02 11:51:30;;;;;;;6.57;3.83;;;;;;;23.85;37.83;98641.63;5024483;28;20687;-69
2022/05/02 11:53:58;;;;;;;4.72;3.90;;;;;;;24.20;36.75;98640.31;5026164;28;20060;-69
2022/05/02 11:56:35;;;;;;;7.88;3.83;;;;;;;24.29;35.94;98640.50;5021455;28;20026;-69
2022/05/02 11:59:10;;;;;;;4.88;3.88;;;;;;;24.48;37.74;98643.31;5019187;28;20033;-70
2022/05/02 12:01:41;;;;;;;4.97;3.75;;;;;;;24.10;36.89;98632.16;5030550;28;20029;-68
2022/05/02 12:04:06;;;;;;;4.30;3.60;;;;;;;24.06;36.23;98642.19;5027498;28;20029;-68
2022/05/02 12:07:01;;;;;;;6.75;4.20;;;;;;;23.60;37.08;98646.25;5015333;28;20025;-69
2022/05/02 12:09:29;;;;;;;5.95;3.95;;;;;;;22.91;38.58;98639.16;5014163;28;20036;-69
2022/05/02 12:11:56;;;;;;;5.28;3.90;;;;;;;23.15;37.39;98625.47;5026861;28;20025;-69
2022/05/02 12:14:22;;;;;;;6.82;3.72;;;;;;;23.60;37.65;98643.50;5015710;28;20458;-69
2022/05/02 12:17:09;;;;;;;3.92;3.35;;;;;;;24.11;36.76;98638.53;5011812;28;20021;-69
2022/05/02 12:19:38;;;;;;;3.75;3.30;;;;;;;23.81;35.93;98638.59;5019219;28;20479;-67